Belgrade, MN

9:21 PM CDT on September 24, 2016 (GMT -0500)
Sibley | | Change Station

Elev 1260 ft 45.33 °N, 95.01 °W | Updated 4 minutes ago

Thunderstorms and Rain
Thunderstorm Rain
66.0 °F
Feels Like 66.0 °F
N
4.2
Wind Variable Wind from ENE

Today
High -- | Low -- °F
--% Chance of Precip.
Yesterday
High -- | Low -- °F
Precip. -- in
Pressure 29.91 in
Visibility 5.0 miles
Clouds Scattered Clouds 1400 ft
Mostly Cloudy 3600 ft
Overcast 4500 ft
Dew Point 66 °F
Humidity 99%
Rainfall 0.48 in
Snow Depth Not available.
7:09 AM 7:12 PM
Waning Crescent, 32% visible
METAR KPEX 250213Z AUTO 07006KT 5SM TSRA SCT014 BKN036 OVC045 19/19 A2991 RMK AO2 LTG DSNT ALQS T01920193
Pressure 29.91 in
Visibility 5.0 miles
Clouds Scattered Clouds 1400 ft
Mostly Cloudy 3600 ft
Overcast 4500 ft
Dew Point 66 °F
Humidity 99%
Rainfall 0.48 in
Snow Depth Not available.
7:09 AM 7:12 PM
Waning Crescent, 32% visible
METAR KPEX 250213Z AUTO 07006KT 5SM TSRA SCT014 BKN036 OVC045 19/19 A2991 RMK AO2 LTG DSNT ALQS T01920193

10-Day Weather Forecast

Almanac

Astronomy

Sep. 24, 2016 Rise Set
Actual Time
Civil Twilight
Nautical Twilight
Astronomical Twilight
Moon
Length of Visible Light
Length of Day
Tomorrow will be .
, % of the Moon is Illuminated

Today's Extremes

State Highs State Lows

Community

WunderPhotos

Upload Photos

1,941,527 photos uploaded!

WunderBlog® & News

Nearby

Air Quality

  Air Quality AQ Index Pollutant
Not available.

Snow Depth

Station Depth Elevation

Earthquake Activity

City Distance Mag. Time & Date
Minimum magnitude displayed is 2.5.

Coastal Water Temperatures

Place Temperature

Stations

Nearby Weather Stations

Station Location Temp. Windchill Dew Point Humidity Wind Precip. Elev Updated Type
                   

Watches & Warnings

There are currently no watches in effect.